Pinehurst, Massachusetts
Current Conditions -  °F | °C
As of 6:56 PM on Tuesday 25 Nov 2014 (Local Time) from KBED Reporting Station
Clear Clear  
Wind Chill: 46°   Ceiling: Unl
Heat Index: 46°   Visibility: 10mi
Dew Point: 27°   Wind: 3mph
Humidity: 47%   Direction: 260°W
Pressure: 29.99"   Gusts: NA
Location:  42.53°N, 71.23°W
Report Text: KBED 252356Z 26003KT 10SM CLR 08/M03 A2999 RMK AO2 SLP168 T00781028 10150 20078 51031
Loading
Personal Weather Stations






























Interactive Weather Map New forecast layout! Learn more

10-Day Weather Forecast

Advertisements
Track Severe Weather on mobile